createdAt,value
2018-02-17T19:31:15.737Z,93.83
2018-02-17T19:32:25.194Z,59.77
2018-02-17T19:33:30.627Z,58.07
2018-02-17T19:35:52.625Z,53.63
2018-02-17T19:38:04.230Z,51.87
2018-02-17T19:39:10.644Z,51.13
2018-02-17T19:40:18.516Z,50.50
2018-02-17T19:41:29.616Z,51.00
2018-02-17T19:42:48.710Z,49.70
2018-02-17T19:44:02.536Z,45.63
2018-02-17T19:45:16.559Z,48.80
2018-02-17T19:46:30.301Z,46.07
2018-02-17T19:47:43.177Z,45.20
2018-02-17T19:48:54.785Z,48.77
2018-02-17T19:50:07.719Z,43.00
2018-02-17T19:51:26.713Z,47.40
2018-02-17T19:52:36.950Z,44.13
2018-02-17T19:53:41.903Z,42.57
2018-02-17T19:59:19.577Z,79.37
2018-02-17T20:00:26.191Z,46.17
2018-02-17T20:01:33.413Z,48.07
2018-02-17T20:02:41.996Z,50.17
2018-02-17T20:03:48.484Z,48.13
2018-02-17T20:04:58.596Z,50.27
2018-02-17T20:06:07.559Z,51.90
2018-02-17T20:07:12.458Z,51.13
2018-02-17T20:08:16.566Z,48.53
2018-02-17T20:09:20.665Z,46.97
2018-02-17T20:10:24.765Z,48.83
2018-02-17T20:11:29.002Z,48.87
2018-02-17T20:12:33.093Z,46.17
2018-02-17T20:14:47.485Z,48.93
2018-02-17T20:15:51.580Z,45.50
2018-02-17T20:16:55.675Z,44.00
2018-02-17T20:18:00.547Z,49.70
2018-02-17T20:19:04.754Z,45.50
2018-02-17T20:20:08.907Z,43.80
2018-02-17T20:21:13.143Z,45.10
2018-02-17T20:22:17.450Z,42.67
2018-02-17T20:23:39.164Z,42.30
2018-02-17T20:25:00.449Z,56.43
2018-02-17T20:26:21.929Z,54.20
2018-02-17T20:27:52.241Z,47.87
2018-02-17T20:29:20.550Z,43.30
2018-02-17T20:30:43.332Z,44.70
2018-02-17T20:31:59.326Z,39.63
2018-02-17T20:33:03.620Z,43.05
2018-02-17T20:34:08.981Z,39.30
2018-02-17T20:35:14.145Z,39.30
2018-02-17T20:36:18.388Z,34.87
2018-02-17T20:37:28.384Z,36.50
2018-02-17T20:38:32.992Z,34.57
2018-02-17T20:39:51.234Z,36.57
2018-02-17T20:40:58.638Z,35.57
2018-02-17T20:42:07.189Z,32.73
2018-02-17T20:43:18.281Z,33.83
2018-02-17T20:44:26.033Z,33.03
2018-02-17T20:46:41.458Z,31.70
2018-02-17T20:47:45.708Z,33.27
2018-02-17T20:48:50.347Z,32.53
2018-02-17T20:49:54.518Z,34.90
2018-02-17T20:51:29.508Z,28.93
2018-02-17T22:08:17.833Z,50.40
2018-02-17T22:09:25.256Z,46.07
2018-02-17T22:10:30.252Z,45.57
2018-02-17T22:11:34.330Z,41.57
2018-02-17T22:12:39.159Z,41.83
2018-02-17T22:13:43.333Z,41.77
2018-02-17T22:14:49.788Z,39.40
2018-02-17T22:15:53.931Z,39.90
2018-02-17T22:16:59.771Z,38.17
2018-02-17T22:18:06.304Z,36.70
2018-02-17T22:19:10.457Z,41.03
2018-02-17T22:20:14.557Z,217.73
2018-02-17T22:21:24.341Z,665.87
2018-02-17T22:22:28.675Z,480.23
2018-02-17T22:23:32.925Z,354.50
2018-02-17T22:24:37.219Z,321.60
2018-02-17T22:25:41.477Z,293.00
2018-02-17T22:26:45.612Z,279.57
2018-02-17T22:27:50.680Z,256.00
2018-02-17T22:28:54.761Z,240.60
2018-02-17T22:29:58.901Z,212.90
2018-02-17T22:31:03.279Z,209.03
2018-02-17T22:32:07.383Z,192.40
2018-02-17T22:33:11.461Z,182.37
2018-02-17T22:34:15.682Z,170.47
2018-02-17T22:35:25.477Z,164.10
2018-02-17T22:36:30.002Z,157.63
2018-02-17T22:37:34.750Z,148.07
2018-02-17T22:38:42.180Z,135.40
2018-02-17T22:39:48.154Z,128.30
2018-02-17T22:40:55.167Z,122.07
2018-02-17T22:42:03.159Z,119.03
2018-02-17T22:43:09.752Z,111.67
2018-02-17T22:44:19.008Z,107.50
2018-02-17T22:45:33.266Z,101.80
2018-02-17T22:46:41.043Z,95.23
2018-02-17T22:47:49.366Z,91.90
2018-02-17T22:48:56.528Z,82.13
2018-02-17T22:50:03.927Z,82.27
2018-02-17T22:51:20.485Z,77.00
2018-02-17T22:52:34.466Z,72.90
2018-02-17T22:53:42.483Z,66.57
2018-02-17T22:54:50.059Z,60.50
2018-02-17T22:55:58.641Z,62.40
2018-02-17T22:57:05.229Z,57.03
2018-02-17T22:58:11.647Z,54.63
2018-02-17T22:59:21.700Z,53.10
2018-02-17T23:00:38.997Z,51.03
2018-02-17T23:01:43.812Z,49.60
2018-02-17T23:02:54.665Z,149.97
2018-02-17T23:04:03.318Z,465.50
2018-02-17T23:05:10.006Z,1045.33
2018-02-17T23:06:25.747Z,813.43
2018-02-17T23:07:39.848Z,878.97
2018-02-17T23:08:53.134Z,705.10
2018-02-17T23:10:00.066Z,870.90
2018-02-17T23:11:09.319Z,827.20
2018-02-17T23:12:15.950Z,791.73
2018-02-17T23:13:25.535Z,768.83
2018-02-17T23:14:30.866Z,738.13
2018-02-17T23:15:37.797Z,715.07
2018-02-17T23:16:42.923Z,682.23
2018-02-17T23:17:49.345Z,664.23
2018-02-17T23:18:55.451Z,545.07
2018-02-17T23:20:03.278Z,474.90
2018-02-17T23:21:10.041Z,409.50
2018-02-17T23:22:23.628Z,356.43
2018-02-17T23:23:40.465Z,314.70
2018-02-17T23:24:50.629Z,278.93
2018-02-17T23:25:56.959Z,244.00
2018-02-17T23:27:03.749Z,228.77
2018-02-17T23:28:13.024Z,210.23
2018-02-17T23:29:24.550Z,184.37
2018-02-17T23:30:30.707Z,176.30
2018-02-17T23:31:35.505Z,167.00
2018-02-17T23:32:39.552Z,157.10
2018-02-17T23:33:44.469Z,142.73
2018-02-17T23:34:49.160Z,137.37
2018-02-17T23:36:01.726Z,126.30
2018-02-17T23:37:06.944Z,119.30
2018-02-17T23:38:11.388Z,112.57
2018-02-17T23:39:16.177Z,105.37
2018-02-17T23:40:20.643Z,103.10
2018-02-17T23:41:26.488Z,97.33
2018-02-17T23:42:31.271Z,92.83
2018-02-17T23:43:35.292Z,88.10
2018-02-17T23:44:39.321Z,84.40
2018-02-17T23:45:43.399Z,78.40
2018-02-17T23:46:47.441Z,75.50
2018-02-17T23:47:51.452Z,75.67
2018-02-17T23:48:55.469Z,72.20
2018-02-17T23:49:59.488Z,69.37
2018-02-17T23:51:14.850Z,132.80
2018-02-17T23:52:18.870Z,116.93
2018-02-17T23:53:22.896Z,126.93
2018-02-17T23:54:27.680Z,393.13
2018-02-17T23:55:31.705Z,377.83
2018-02-17T23:56:35.791Z,408.90
2018-02-17T23:57:39.839Z,391.00
2018-02-17T23:58:43.983Z,359.47
2018-02-17T23:59:48.037Z,345.80
